Hauptseite
METAR-TAF:

METAR-TAF

Flughäfen :

Jekaterinburg, Russland

Flughafen Jekaterinburg

Breite: 56-50N, Länge: 060-38E, Höhe: 237 m

Beobachtung

Neuester Wetterbericht von vor 42 Minuten, um 03:30 UTC
Wind 4 kt aus West, variierte zwischen Südwest und Nordwest
Temperatur 5°C
Luftfeuchtigkeit 75%
Luftdruck 1018 hPa
Sichtweite 10 km oder mehr
keine Wolken unter 1500 m und keine Kumulonimbus oder Gewitterwolken

METAR: USSS 260330Z 28002MPS 220V320 CAVOK 05/01 Q1018 R26R/150050 NOSIG RMK QFE743/0991

Zeit: 09:12 (04:12 UTC)

Prognose

Neuester Wetterbericht von vor 2 Stunden und 13 Minuten, um 01:59 UTC
Gültige Prognose vom 26 um 03 UTC bis 27 um 03 UTC
Wind 6 kt aus Süd/Südost
Sichtweite 10 km oder mehr
Durchbrochene Bewölkung in der Höhe von 1500 ft
Übergehend zu
vom 26 um 04 UTC bis 26 um 06 UTC
Wind 10 kt aus Südwest

TAF: USSS 260159Z 2603/2703 16003MPS 9999 BKN015 BECMG 2604/2606 22005MPS

Wetterbeobachtungen und Prognosen von mehr als 4000 Flughäfen (METAR und TAF Bericht).

Die verfügbaren Stationen werden durch gelbe und rote Markierungen auf der Karte dargestellt.

Führen Sie die Maus auf sie, um den Namen der Station zu sehen.

Darauf klicken, um die Beobachtung von Wetterbeobachtungen und Prognosen zu sehen.

Um die Karte zu ändern : klicken Sie auf den grünen Tasten mit einem schwarzen Kreuz Zum Vergrößern, auf den grünen Button mit einem Gedankenstrich zu verkleinern, oder auf die grünen Pfeile für benachbarte Karten.


METAR-TAF: